Time;durP1;ratioP1;P1;durP2;ratioP2;P2;SDS_P1;SDS_P2;PMS_P1;PMS_P2;Temp;Humidity;BMP_temperature;BMP_pressure;BME280_temperature;BME280_humidity;BME280_pressure;Samples;Min_cycle;Max_cycle;Signal;HPM_P1;HPM_P2
2023/05/24 00:02:05;;;;;;;12.93;7.93;;;;;;;-145.69;100.00;52448.34;5052548;28;20199;-84
2023/05/24 00:04:32;;;;;;;12.85;7.97;;;;;;;-145.69;100.00;52466.16;5053033;28;20198;-80
2023/05/24 00:07:02;;;;;;;10.57;7.25;;;;;;;-145.69;100.00;52432.50;5051837;28;20682;-80
2023/05/24 00:09:30;;;;;;;13.93;7.72;;;;;;;-145.69;100.00;52462.22;5052216;28;20203;-81
2023/05/24 00:11:56;;;;;;;12.30;7.80;;;;;;;-145.69;100.00;52436.47;5052577;28;20195;-80
2023/05/24 00:14:23;;;;;;;11.52;7.63;;;;;;;-145.69;100.00;52464.19;5056147;28;20191;-82
2023/05/24 00:16:50;;;;;;;13.85;8.02;;;;;;;-145.69;100.00;52452.31;5052846;28;20192;-81
2023/05/24 00:19:17;;;;;;;11.20;7.10;;;;;;;-145.69;100.00;52460.22;5052209;28;20305;-79
2023/05/24 00:21:44;;;;;;;11.07;7.57;;;;;;;-145.69;100.00;52458.25;5052583;28;20273;-81
2023/05/24 00:24:11;;;;;;;12.65;7.35;;;;;;;-145.69;100.00;52476.06;5054008;28;20673;-80
2023/05/24 00:26:38;;;;;;;10.57;7.10;;;;;;;-145.69;100.00;52456.28;5058241;28;20195;-79
2023/05/24 00:29:05;;;;;;;12.53;7.70;;;;;;;-145.69;100.00;52464.19;5072229;28;20214;-80
2023/05/24 00:31:31;;;;;;;10.63;7.63;;;;;;;-145.69;100.00;52466.16;5072265;28;20207;-79
2023/05/24 00:33:58;;;;;;;16.25;8.25;;;;;;;-145.69;100.00;52420.63;5071183;28;20199;-80
2023/05/24 00:36:25;;;;;;;12.05;7.55;;;;;;;-145.69;100.00;52448.34;5057258;28;20195;-81
2023/05/24 00:38:52;;;;;;;13.63;7.80;;;;;;;-145.69;100.00;52444.38;5072472;28;20526;-82
2023/05/24 00:41:19;;;;;;;12.13;7.87;;;;;;;-145.69;100.00;52464.19;5072342;28;20198;-80
2023/05/24 00:43:47;;;;;;;13.52;8.38;;;;;;;-145.69;100.00;52420.63;5074146;28;20198;-80
2023/05/24 00:46:19;;;;;;;15.10;7.90;;;;;;;-145.69;100.00;52434.47;5056231;28;20199;-81
2023/05/24 00:48:46;;;;;;;15.17;8.10;;;;;;;-145.69;100.00;52466.16;5055459;28;20318;-80
2023/05/24 00:51:13;;;;;;;11.55;7.63;;;;;;;-145.69;100.00;52470.13;5055660;28;20230;-80
2023/05/24 00:53:42;;;;;;;12.33;8.03;;;;;;;-145.69;100.00;52456.28;5055829;28;20204;-83
2023/05/24 00:56:09;;;;;;;15.93;8.25;;;;;;;-145.69;100.00;52464.19;5059178;28;20203;-80
2023/05/24 00:58:35;;;;;;;13.43;8.10;;;;;;;-145.69;100.00;52452.31;5055735;28;20203;-79
2023/05/24 01:01:03;;;;;;;11.35;7.95;;;;;;;-145.69;100.00;52458.25;5055473;28;20227;-79
2023/05/24 01:03:30;;;;;;;14.85;8.15;;;;;;;-145.69;100.00;52446.38;5055398;28;20550;-81
2023/05/24 01:05:57;;;;;;;12.80;7.87;;;;;;;-145.69;100.00;52470.13;5069285;28;20198;-83
2023/05/24 01:08:41;;;;;;;14.37;8.27;;;;;;;-145.69;100.00;52460.22;5074565;28;20195;-81
2023/05/24 01:11:16;;;;;;;13.13;7.77;;;;;;;-145.69;100.00;52464.19;5066428;28;20201;-80
2023/05/24 01:13:52;;;;;;;12.38;7.60;;;;;;;-145.69;100.00;52468.16;5053530;28;20646;-80
2023/05/24 01:16:25;;;;;;;13.77;9.00;;;;;;;-145.69;100.00;52476.06;5073198;28;20187;-80
2023/05/24 01:18:56;;;;;;;17.50;7.63;;;;;;;-145.69;100.00;52478.06;5075639;28;20198;-83
2023/05/24 01:21:38;;;;;;;17.40;8.33;;;;;;;-145.69;100.00;52474.09;5063415;28;20195;-81
2023/05/24 01:24:14;;;;;;;14.33;8.17;;;;;;;-145.69;100.00;52464.19;5062049;28;20222;-81
2023/05/24 01:26:47;;;;;;;12.97;8.77;;;;;;;-145.69;100.00;52456.28;5074850;28;20202;-82
2023/05/24 01:29:16;;;;;;;12.40;7.90;;;;;;;-145.69;100.00;52476.06;5075259;28;20207;-82
2023/05/24 01:31:43;;;;;;;13.73;8.93;;;;;;;-145.69;100.00;52446.38;5074743;28;20203;-80
2023/05/24 01:34:09;;;;;;;16.63;8.30;;;;;;;-145.69;100.00;52472.13;5068857;28;20195;-81
2023/05/24 01:36:36;;;;;;;14.33;8.63;;;;;;;-145.69;100.00;52450.31;5055025;28;20211;-80
2023/05/24 01:39:04;;;;;;;14.37;8.37;;;;;;;-145.69;100.00;52472.13;5054574;28;20657;-80
2023/05/24 01:41:39;;;;;;;16.70;8.97;;;;;;;-145.69;100.00;52462.22;5067114;28;20203;-80
2023/05/24 01:44:13;;;;;;;16.77;9.23;;;;;;;-145.69;100.00;52507.75;5063362;28;20203;-83
2023/05/24 01:46:40;;;;;;;14.17;8.43;;;;;;;-145.69;100.00;52456.28;5054847;28;20200;-81
2023/05/24 01:49:17;;;;;;;14.80;8.70;;;;;;;-145.69;100.00;52482.00;5058664;28;20235;-80
2023/05/24 01:51:49;;;;;;;19.93;8.77;;;;;;;-145.69;100.00;52503.81;5061194;28;20218;-81
2023/05/24 01:54:20;;;;;;;14.20;8.47;;;;;;;-145.69;100.00;52472.13;5054604;28;20208;-79
2023/05/24 01:56:48;;;;;;;17.50;9.10;;;;;;;-145.69;100.00;52484.00;5054606;28;20200;-79
2023/05/24 01:59:15;;;;;;;16.07;9.30;;;;;;;-145.69;100.00;52466.16;5055134;28;20226;-79
2023/05/24 02:01:43;;;;;;;14.63;8.73;;;;;;;-145.69;100.00;52478.06;5054482;28;20622;-81
2023/05/24 02:04:10;;;;;;;15.90;8.27;;;;;;;-145.69;100.00;52462.22;5054541;28;20198;-80
2023/05/24 02:06:37;;;;;;;14.00;7.80;;;;;;;-145.69;100.00;52446.38;5054141;28;20206;-79
2023/05/24 02:09:03;;;;;;;14.37;8.27;;;;;;;-145.69;100.00;52482.00;5062073;28;20256;-79
2023/05/24 02:11:30;;;;;;;18.47;9.43;;;;;;;-145.69;100.00;52472.13;5074428;28;20218;-83
2023/05/24 02:13:56;;;;;;;21.80;10.23;;;;;;;-145.69;100.00;52507.75;5073889;28;20194;-79
2023/05/24 02:16:25;;;;;;;19.97;9.50;;;;;;;-145.69;100.00;52440.44;5074394;28;20225;-84
2023/05/24 02:18:53;;;;;;;16.43;8.83;;;;;;;-145.69;100.00;52487.97;5067640;28;20569;-79
2023/05/24 02:21:19;;;;;;;12.47;8.17;;;;;;;-145.69;100.00;52499.84;5054357;28;20230;-81
2023/05/24 02:23:46;;;;;;;16.17;8.87;;;;;;;-145.69;100.00;52474.09;5061727;28;20205;-82
2023/05/24 02:26:13;;;;;;;17.03;8.73;;;;;;;-145.69;100.00;52487.97;5074027;28;20207;-82
2023/05/24 02:28:40;;;;;;;17.03;8.63;;;;;;;-145.69;100.00;52464.19;5069317;28;20721;-79
2023/05/24 02:31:07;;;;;;;17.67;8.50;;;;;;;-145.69;100.00;52474.09;5053767;28;20239;-79
2023/05/24 02:33:34;;;;;;;13.50;8.07;;;;;;;-145.69;100.00;52484.00;5034069;28;20291;-79
2023/05/24 02:36:01;;;;;;;14.73;8.87;;;;;;;-145.69;100.00;52478.06;5033927;28;20210;-79
2023/05/24 02:38:28;;;;;;;18.63;8.50;;;;;;;-145.69;100.00;52484.00;5037878;28;20191;-79
2023/05/24 02:40:55;;;;;;;16.10;8.77;;;;;;;-145.69;100.00;52482.00;5053653;28;20254;-80
2023/05/24 02:43:21;;;;;;;15.90;8.87;;;;;;;-145.69;100.00;52503.81;5053770;28;20195;-80
2023/05/24 02:45:47;;;;;;;14.87;8.37;;;;;;;-145.69;100.00;52493.91;5053650;28;20207;-80
2023/05/24 02:48:14;;;;;;;12.17;7.80;;;;;;;-145.69;100.00;52495.88;5053150;28;20658;-79
2023/05/24 02:50:40;;;;;;;12.17;8.10;;;;;;;-145.69;100.00;52482.00;5072649;28;20214;-79
2023/05/24 02:53:08;;;;;;;13.97;8.20;;;;;;;-145.69;100.00;52478.06;5072921;28;20202;-80
2023/05/24 02:55:36;;;;;;;14.17;7.47;;;;;;;-145.69;100.00;52460.22;5073381;28;20600;-79
2023/05/24 02:58:02;;;;;;;13.03;7.80;;;;;;;-145.69;100.00;52468.16;5072993;28;20199;-80
2023/05/24 03:00:29;;;;;;;13.27;7.33;;;;;;;-145.69;100.00;52487.97;5055520;28;20226;-79
2023/05/24 03:02:59;;;;;;;11.90;7.43;;;;;;;-145.69;100.00;52472.13;5053401;28;20682;-80
2023/05/24 03:05:25;;;;;;;13.47;7.67;;;;;;;-145.69;100.00;52489.94;5052921;28;20266;-79
2023/05/24 03:07:52;;;;;;;12.47;7.63;;;;;;;-145.69;100.00;52482.00;5053026;28;20199;-79
2023/05/24 03:10:20;;;;;;;11.60;7.60;;;;;;;-145.69;100.00;52482.00;5068150;28;20203;-80
2023/05/24 03:12:46;;;;;;;11.30;6.73;;;;;;;-145.69;100.00;52495.88;5072545;28;20211;-79
2023/05/24 03:15:13;;;;;;;13.90;7.03;;;;;;;-145.69;100.00;52515.69;5072826;28;20229;-80
2023/05/24 03:17:39;;;;;;;15.33;7.30;;;;;;;-145.69;100.00;52541.44;5073242;28;20204;-80
2023/05/24 03:20:07;;;;;;;11.90;6.43;;;;;;;-145.69;100.00;52487.97;5055156;28;20492;-80
2023/05/24 03:22:34;;;;;;;10.03;6.63;;;;;;;-145.69;100.00;52480.03;5051554;28;20195;-79
2023/05/24 03:25:00;;;;;;;16.97;7.23;;;;;;;-145.69;100.00;52491.91;5052702;28;20211;-79
2023/05/24 03:27:28;;;;;;;10.67;6.87;;;;;;;-145.69;100.00;52511.72;5052559;28;20673;-81
2023/05/24 03:29:54;;;;;;;13.73;6.57;;;;;;;-145.69;100.00;52507.75;5064116;28;20195;-79
2023/05/24 03:32:21;;;;;;;11.93;6.53;;;;;;;-145.69;100.00;52491.91;5063893;28;20687;-80
2023/05/24 03:34:47;;;;;;;13.87;6.13;;;;;;;-145.69;100.00;52491.91;5053159;28;20199;-81
2023/05/24 03:37:14;;;;;;;11.40;5.77;;;;;;;-145.69;100.00;52485.97;5053012;28;20210;-79
2023/05/24 03:39:40;;;;;;;14.20;6.00;;;;;;;-145.69;100.00;52489.94;5061631;28;20202;-82
2023/05/24 03:42:07;;;;;;;13.23;5.93;;;;;;;-145.69;100.00;52484.00;5072649;28;20202;-81
2023/05/24 03:44:35;;;;;;;9.80;5.83;;;;;;;-145.69;100.00;52525.59;5063334;28;20198;-83
2023/05/24 03:47:02;;;;;;;14.80;5.77;;;;;;;-145.69;100.00;52480.03;5058096;28;20582;-82
2023/05/24 03:49:29;;;;;;;15.83;5.90;;;;;;;-145.69;100.00;52503.81;5066659;28;20602;-79
2023/05/24 03:51:57;;;;;;;9.70;5.50;;;;;;;-145.69;100.00;52484.00;5052866;28;20203;-81
2023/05/24 03:54:23;;;;;;;17.10;5.70;;;;;;;-145.69;100.00;52527.56;5052404;28;20212;-78
2023/05/24 03:56:52;;;;;;;9.80;5.83;;;;;;;-145.69;100.00;52515.69;5067256;28;20199;-79
2023/05/24 03:59:18;;;;;;;15.53;5.60;;;;;;;-145.69;100.00;52487.97;5054902;28;20689;-79
2023/05/24 04:01:46;;;;;;;11.13;5.57;;;;;;;-145.69;100.00;52503.81;5069508;28;20768;-80
2023/05/24 04:04:13;;;;;;;12.73;6.30;;;;;;;-145.69;100.00;52476.06;5071049;28;20209;-79
2023/05/24 04:06:40;;;;;;;11.37;5.63;;;;;;;-145.69;100.00;52489.94;5072593;28;20213;-78
2023/05/24 04:09:08;;;;;;;22.00;5.97;;;;;;;-145.69;100.00;52499.84;5071246;28;20198;-80
2023/05/24 04:11:35;;;;;;;10.63;5.27;;;;;;;-145.69;100.00;52468.16;5053067;28;20203;-80
2023/05/24 04:14:05;;;;;;;12.20;5.53;;;;;;;-145.69;100.00;52474.09;5072540;28;20213;-80
2023/05/24 04:16:32;;;;;;;11.27;5.27;;;;;;;-145.69;100.00;52491.91;5072460;28;20206;-79
2023/05/24 04:19:02;;;;;;;21.47;5.47;;;;;;;-145.69;100.00;52491.91;5075580;28;20225;-79
2023/05/24 04:21:29;;;;;;;11.60;5.60;;;;;;;-145.69;100.00;52468.16;5054289;28;20747;-79
2023/05/24 04:23:56;;;;;;;19.30;5.10;;;;;;;-145.69;100.00;52487.97;5075822;28;20206;-79
2023/05/24 04:26:26;;;;;;;14.37;5.57;;;;;;;-145.69;100.00;52505.78;5076399;28;20222;-79
2023/05/24 04:28:52;;;;;;;17.50;5.47;;;;;;;-145.69;100.00;52503.81;5076726;28;20226;-81
2023/05/24 04:31:20;;;;;;;13.13;5.47;;;;;;;-145.69;100.00;52499.84;5075878;28;20202;-78
2023/05/24 04:33:47;;;;;;;10.87;5.23;;;;;;;-145.69;100.00;52472.13;5057694;28;20199;-79
2023/05/24 04:36:16;;;;;;;10.17;5.00;;;;;;;-145.69;100.00;52505.78;5056570;28;20210;-81
2023/05/24 04:38:44;;;;;;;16.57;5.50;;;;;;;-145.69;100.00;52476.06;5055905;28;20218;-82
2023/05/24 04:41:12;;;;;;;11.63;5.10;;;;;;;-145.69;100.00;52491.91;5061756;28;20718;-79
2023/05/24 04:43:39;;;;;;;14.87;4.83;;;;;;;-145.69;100.00;52491.91;5055733;28;20215;-80
2023/05/24 04:46:05;;;;;;;10.83;4.50;;;;;;;-145.69;100.00;52503.81;5074009;28;20191;-80
2023/05/24 04:48:32;;;;;;;14.50;4.30;;;;;;;-145.69;100.00;52515.69;5075986;28;20198;-79
2023/05/24 04:50:59;;;;;;;13.53;4.90;;;;;;;-145.69;100.00;52462.22;5067281;28;20191;-79
2023/05/24 04:53:27;;;;;;;13.13;5.17;;;;;;;-145.69;100.00;52491.91;5062804;28;20199;-80
2023/05/24 04:55:53;;;;;;;14.43;5.00;;;;;;;-145.69;100.00;52507.75;5075995;28;20553;-80
2023/05/24 04:58:21;;;;;;;14.43;5.13;;;;;;;-145.69;100.00;52487.97;5075241;28;20248;-80
2023/05/24 05:00:48;;;;;;;17.20;5.00;;;;;;;-145.69;100.00;52466.16;5075527;28;20237;-80
2023/05/24 05:03:16;;;;;;;14.33;5.10;;;;;;;-145.69;100.00;52482.00;5072792;28;20201;-79
2023/05/24 05:05:43;;;;;;;17.10;4.97;;;;;;;-145.69;100.00;52480.03;5055619;28;20203;-83
2023/05/24 05:08:09;;;;;;;12.30;4.53;;;;;;;-145.69;100.00;52440.44;5055524;28;20290;-81
2023/05/24 05:10:37;;;;;;;10.30;4.53;;;;;;;-145.69;100.00;52491.91;5072335;28;20285;-80
2023/05/24 05:13:04;;;;;;;11.23;3.77;;;;;;;-145.69;100.00;52509.75;5074420;28;20206;-80
2023/05/24 05:15:31;;;;;;;11.68;4.55;;;;;;;-145.69;100.00;52474.09;5056843;28;20230;-80
2023/05/24 05:17:57;;;;;;;9.52;4.53;;;;;;;-145.69;100.00;52472.13;5075159;28;20551;-81
2023/05/24 05:20:24;;;;;;;13.30;4.43;;;;;;;-145.69;100.00;52456.28;5059966;28;20230;-80
2023/05/24 05:22:51;;;;;;;10.38;4.55;;;;;;;-145.69;100.00;52470.13;5055408;28;20203;-80
2023/05/24 05:25:17;;;;;;;11.75;3.80;;;;;;;-145.69;100.00;52460.22;5040541;28;20218;-80
2023/05/24 05:27:45;;;;;;;9.95;4.07;;;;;;;-145.69;100.00;52474.09;5070174;28;20226;-80
2023/05/24 05:30:12;;;;;;;8.25;3.65;;;;;;;-145.69;100.00;52456.28;5074894;28;20202;-82
2023/05/24 05:32:39;;;;;;;8.20;3.97;;;;;;;-145.69;100.00;52472.13;5075171;28;20194;-79
2023/05/24 05:35:08;;;;;;;14.35;4.18;;;;;;;-145.69;100.00;52487.97;5075679;28;20202;-80
2023/05/24 05:37:35;;;;;;;11.55;4.57;;;;;;;-145.69;100.00;52452.31;5072294;28;20195;-81
2023/05/24 05:40:02;;;;;;;11.02;4.28;;;;;;;-145.69;100.00;52456.28;5074505;28;20199;-83
2023/05/24 05:42:29;;;;;;;13.30;4.45;;;;;;;-145.69;100.00;52458.25;5075072;28;20226;-80
2023/05/24 05:44:59;;;;;;;11.07;4.13;;;;;;;-145.69;100.00;52458.25;5074676;28;20218;-80
2023/05/24 05:47:26;;;;;;;16.35;4.25;;;;;;;-145.69;100.00;52503.81;5072528;28;20207;-83
2023/05/24 05:49:53;;;;;;;11.25;4.15;;;;;;;-145.69;100.00;52470.13;5057068;28;20255;-81
2023/05/24 05:52:19;;;;;;;11.13;4.22;;;;;;;-145.69;100.00;52464.19;5055221;28;20204;-82
2023/05/24 05:54:46;;;;;;;10.23;4.13;;;;;;;-145.69;100.00;52450.31;5054615;28;20199;-80
2023/05/24 05:57:12;;;;;;;14.48;4.32;;;;;;;-145.69;100.00;52432.50;5055606;28;20213;-80
2023/05/24 05:59:39;;;;;;;14.20;4.20;;;;;;;-145.69;100.00;52489.94;5055015;28;20203;-79
2023/05/24 06:02:07;;;;;;;18.30;4.57;;;;;;;-145.69;100.00;52466.16;5054584;28;20231;-80
2023/05/24 06:04:33;;;;;;;13.97;4.37;;;;;;;-145.69;100.00;52452.31;5056079;28;20199;-80
2023/05/24 06:07:00;;;;;;;20.67;4.40;;;;;;;-145.69;100.00;52458.25;5053870;28;20204;-80
2023/05/24 06:09:26;;;;;;;13.30;4.30;;;;;;;-145.69;100.00;52460.22;5072066;28;20201;-80
2023/05/24 06:11:55;;;;;;;11.82;4.82;;;;;;;-145.69;100.00;52454.28;5069877;28;20199;-79
2023/05/24 06:14:23;;;;;;;16.03;4.07;;;;;;;-145.69;100.00;52489.94;5055256;28;20203;-83
2023/05/24 06:16:51;;;;;;;14.37;4.30;;;;;;;-145.69;100.00;52485.97;5063466;28;20193;-79
2023/05/24 06:19:19;;;;;;;14.73;4.75;;;;;;;-145.69;100.00;52468.16;5073657;28;20653;-81
2023/05/24 06:21:46;;;;;;;17.88;5.20;;;;;;;-145.69;100.00;52499.84;5055452;28;20461;-80
2023/05/24 06:24:14;;;;;;;12.48;4.38;;;;;;;-145.69;100.00;52464.19;5073983;28;20527;-79
2023/05/24 06:26:40;;;;;;;13.85;4.78;;;;;;;-145.69;100.00;52472.13;5066524;28;20191;-81
2023/05/24 06:29:07;;;;;;;10.82;4.40;;;;;;;-145.69;100.00;52456.28;5054532;28;20222;-80
2023/05/24 06:31:34;;;;;;;15.98;5.03;;;;;;;-145.69;100.00;52497.84;5053371;28;20530;-82
2023/05/24 06:34:00;;;;;;;15.10;4.78;;;;;;;-145.69;100.00;52468.16;5074168;28;20228;-81
2023/05/24 06:36:32;;;;;;;18.13;5.32;;;;;;;-145.69;100.00;52462.22;5054871;28;20666;-81
2023/05/24 06:39:00;;;;;;;11.95;4.32;;;;;;;-145.69;100.00;52444.38;5054514;28;20203;-81
2023/05/24 06:41:26;;;;;;;19.70;5.13;;;;;;;-145.69;100.00;52480.03;5062463;28;20245;-83
2023/05/24 06:43:54;;;;;;;12.30;5.00;;;;;;;-145.69;100.00;52444.38;5059765;28;20196;-80
2023/05/24 06:46:21;;;;;;;16.43;5.00;;;;;;;-145.69;100.00;52468.16;5071683;28;20673;-81
2023/05/24 06:48:48;;;;;;;13.93;4.32;;;;;;;-145.69;100.00;52493.91;5073619;28;20244;-80
2023/05/24 06:51:14;;;;;;;19.83;5.60;;;;;;;-145.69;100.00;52458.25;5066529;28;20270;-82
2023/05/24 06:53:43;;;;;;;16.07;5.67;;;;;;;-145.69;100.00;52472.13;5053928;28;20207;-79
2023/05/24 06:56:10;;;;;;;9.93;4.73;;;;;;;-145.69;100.00;52462.22;5069240;28;20203;-83
2023/05/24 06:58:36;;;;;;;14.05;5.15;;;;;;;-145.69;100.00;52470.13;5073976;28;20290;-80
2023/05/24 07:01:03;;;;;;;12.25;5.13;;;;;;;-145.69;100.00;52468.16;5054958;28;20211;-81
2023/05/24 07:03:30;;;;;;;14.27;4.88;;;;;;;-145.69;100.00;52430.53;5069112;28;20738;-82
2023/05/24 07:05:57;;;;;;;12.35;4.45;;;;;;;-145.69;100.00;52480.03;5059879;28;20692;-80
2023/05/24 07:08:24;;;;;;;11.43;4.88;;;;;;;-145.69;100.00;52436.47;5053347;28;20247;-80
2023/05/24 07:10:53;;;;;;;13.50;5.45;;;;;;;-145.69;100.00;52460.22;5053740;28;20245;-87
2023/05/24 07:13:19;;;;;;;14.68;5.95;;;;;;;-145.69;100.00;52470.13;5054162;28;20203;-86
2023/05/24 07:15:46;;;;;;;12.30;4.78;;;;;;;-145.69;100.00;52444.38;5054150;28;20211;-82
2023/05/24 07:18:13;;;;;;;17.60;5.15;;;;;;;-145.69;100.00;52487.97;5053161;28;20291;-80
2023/05/24 07:20:39;;;;;;;15.07;5.38;;;;;;;-145.69;100.00;52440.44;5052986;28;20196;-80
2023/05/24 07:23:06;;;;;;;8.23;4.35;;;;;;;-145.69;100.00;52420.63;5033011;28;20220;-80
2023/05/24 07:25:33;;;;;;;14.13;5.68;;;;;;;-145.69;100.00;52464.19;5048968;28;20194;-81
2023/05/24 07:28:01;;;;;;;12.80;5.03;;;;;;;-145.69;100.00;52428.53;5046337;28;20282;-82
2023/05/24 07:30:27;;;;;;;12.07;4.80;;;;;;;-145.69;100.00;52456.28;5053748;28;20554;-80
2023/05/24 07:32:54;;;;;;;10.00;4.57;;;;;;;-145.69;100.00;52410.72;5069832;28;20684;-80
2023/05/24 07:35:21;;;;;;;11.68;4.38;;;;;;;-145.69;100.00;52428.53;5065602;28;20252;-79
2023/05/24 07:37:48;;;;;;;13.75;5.07;;;;;;;-145.69;100.00;52452.31;5052819;28;20219;-81
2023/05/24 07:40:14;;;;;;;10.30;4.28;;;;;;;-145.69;100.00;52420.63;5052916;28;20200;-82
2023/05/24 07:42:41;;;;;;;13.32;4.90;;;;;;;-145.69;100.00;52418.63;5067943;28;20230;-80
2023/05/24 07:45:10;;;;;;;11.70;4.63;;;;;;;-145.69;100.00;52416.66;5067291;28;20230;-80
2023/05/24 07:47:37;;;;;;;10.13;4.72;;;;;;;-145.69;100.00;52432.50;5052702;28;20230;-80
2023/05/24 07:50:04;;;;;;;10.68;4.57;;;;;;;-145.69;100.00;52446.38;5052545;28;20246;-80
2023/05/24 07:52:31;;;;;;;10.45;4.47;;;;;;;-145.69;100.00;52440.44;5065779;28;20202;-80
2023/05/24 07:54:57;;;;;;;12.23;5.00;;;;;;;-145.69;100.00;52440.44;5054983;28;20282;-80
2023/05/24 07:57:23;;;;;;;12.10;4.95;;;;;;;-145.69;100.00;52448.34;5055905;28;20207;-81
2023/05/24 07:59:50;;;;;;;12.05;4.97;;;;;;;-145.69;100.00;52396.84;5072545;28;20198;-79
2023/05/24 08:02:18;;;;;;;10.95;4.63;;;;;;;-145.69;100.00;52440.44;5063724;28;20230;-81
2023/05/24 08:04:45;;;;;;;11.82;4.32;;;;;;;-145.69;94.89;52410.72;5070296;28;20199;-80
2023/05/24 08:07:11;;;;;;;10.88;5.22;;;;;;;-145.69;96.98;52442.41;5072171;28;20565;-80
2023/05/24 08:09:38;;;;;;;13.82;5.47;;;;;;;-145.69;98.42;52422.59;5072175;28;20653;-81
2023/05/24 08:12:06;;;;;;;13.93;5.53;;;;;;;-145.69;98.65;52432.50;5072312;28;20538;-80
2023/05/24 08:14:33;;;;;;;16.42;5.95;;;;;;;-145.69;100.00;52384.97;5060322;28;20210;-79
2023/05/24 08:16:59;;;;;;;13.90;5.20;;;;;;;-145.69;100.00;52436.47;5052604;28;20207;-80
2023/05/24 08:19:27;;;;;;;18.23;5.43;;;;;;;-145.69;100.00;52426.56;5054916;28;20241;-79
2023/05/24 08:21:55;;;;;;;14.38;5.25;;;;;;;-145.69;100.00;52408.75;5053673;28;20223;-81
2023/05/24 08:24:22;;;;;;;15.27;5.47;;;;;;;-145.69;94.75;52404.78;5045368;28;20736;-83
2023/05/24 08:26:50;;;;;;;16.95;4.82;;;;;;;-145.69;95.35;52434.47;5050261;28;20294;-82
2023/05/24 08:29:17;;;;;;;13.88;4.90;;;;;;;-145.69;96.84;52392.91;5055240;28;20210;-84
2023/05/24 08:31:44;;;;;;;13.48;4.22;;;;;;;-145.69;91.05;52406.75;5055002;28;20200;-82
2023/05/24 08:34:11;;;;;;;13.07;4.50;;;;;;;-145.69;84.35;52408.75;5061309;28;20194;-83
2023/05/24 08:36:42;;;;;;;17.70;4.80;;;;;;;-145.69;93.24;52404.78;5073799;28;20660;-81
2023/05/24 08:39:08;;;;;;;17.35;4.43;;;;;;;-145.69;86.58;52404.78;5069302;28;20286;-83
2023/05/24 08:41:36;;;;;;;11.55;4.13;;;;;;;-145.69;85.61;52390.91;5054127;28;20586;-85
2023/05/24 08:44:05;;;;;;;13.98;4.78;;;;;;;-145.69;89.04;52365.16;5068009;28;20206;-86
2023/05/24 08:46:34;;;;;;;16.27;4.55;;;;;;;-145.69;95.06;52394.88;5065276;28;20206;-84
2023/05/24 08:49:02;;;;;;;10.68;4.35;;;;;;;-145.69;98.53;52412.69;5052345;28;20238;-81
2023/05/24 08:51:29;;;;;;;13.15;4.30;;;;;;;-145.69;97.61;52384.97;5052153;28;20208;-82
2023/05/24 08:53:58;;;;;;;16.30;5.05;;;;;;;-145.69;95.49;52396.84;5056353;28;20191;-85
2023/05/24 08:56:26;;;;;;;16.00;5.82;;;;;;;-145.69;94.91;52410.72;5053094;28;20214;-86
2023/05/24 08:58:53;;;;;;;17.70;5.15;;;;;;;-145.69;89.84;52404.78;5053359;28;20195;-85
2023/05/24 09:01:21;;;;;;;12.95;4.80;;;;;;;-145.69;89.50;52392.91;5053020;28;20206;-86
2023/05/24 09:03:50;;;;;;;14.60;4.30;;;;;;;-145.69;88.36;52420.63;5064258;28;20191;-85
2023/05/24 09:06:18;;;;;;;14.75;4.57;;;;;;;-145.69;86.34;52412.69;5076210;28;20256;-83
2023/05/24 09:08:45;;;;;;;12.98;4.25;;;;;;;-145.69;87.41;52420.63;5075896;28;20199;-86
2023/05/24 09:11:15;;;;;;;12.13;4.53;;;;;;;-145.69;90.03;52422.59;5071855;28;20203;-84
2023/05/24 09:13:44;;;;;;;12.73;4.57;;;;;;;-145.69;84.73;52408.75;5057338;28;20550;-85
2023/05/24 09:16:10;;;;;;;16.17;4.35;;;;;;;-145.69;85.43;52396.84;5056078;28;20574;-85
2023/05/24 09:18:37;;;;;;;14.63;4.72;;;;;;;-145.69;87.70;52414.69;5053787;28;20208;-85
2023/05/24 09:21:04;;;;;;;10.55;4.13;;;;;;;-145.69;92.24;52416.66;5039719;28;20207;-84
2023/05/24 09:23:32;;;;;;;16.13;4.75;;;;;;;-145.69;91.35;52432.50;5055654;28;20231;-85
2023/05/24 09:26:06;;;;;;;15.65;4.90;;;;;;;-145.69;94.95;52448.34;5055611;28;20203;-81
2023/05/24 09:28:34;;;;;;;14.85;4.80;;;;;;;-145.69;96.63;52462.22;5055931;28;20194;-79
2023/05/24 09:31:03;;;;;;;13.45;5.15;;;;;;;-145.69;94.38;52424.59;5055364;28;20207;-81
2023/05/24 09:33:31;;;;;;;16.45;5.40;;;;;;;-145.69;93.53;52416.66;5060387;28;20197;-82
2023/05/24 09:35:59;;;;;;;17.48;5.00;;;;;;;-145.69;95.92;52444.38;5075787;28;20213;-81
2023/05/24 09:38:26;;;;;;;18.08;5.55;;;;;;;-145.69;95.10;52454.28;5075468;28;20745;-84
2023/05/24 09:41:01;;;;;;;22.35;5.20;;;;;;;-145.69;89.48;52424.59;5075234;28;20210;-80
2023/05/24 09:43:28;;;;;;;17.27;5.07;;;;;;;-145.69;90.30;52414.69;5062531;28;20229;-84
2023/05/24 09:45:58;;;;;;;17.98;5.15;;;;;;;-145.69;89.92;52422.59;5075188;28;20198;-80
2023/05/24 09:48:26;;;;;;;19.83;5.07;;;;;;;-145.69;91.02;52434.47;5069318;28;20241;-84
2023/05/24 09:51:08;;;;;;;16.23;5.00;;;;;;;-145.69;94.59;52428.53;5055881;28;20234;-83
2023/05/24 09:53:37;;;;;;;16.60;5.15;;;;;;;-145.69;94.38;52418.63;5058979;28;20193;-85
2023/05/24 09:56:07;;;;;;;13.23;4.90;;;;;;;-145.69;95.59;52418.63;5076009;28;20206;-85
2023/05/24 09:58:34;;;;;;;12.27;4.32;;;;;;;-145.69;97.10;52440.44;5075909;28;20202;-82
2023/05/24 10:01:07;;;;;;;12.57;5.10;;;;;;;-145.69;98.77;52424.59;5061913;28;20257;-79
2023/05/24 10:03:34;;;;;;;18.08;5.07;;;;;;;-145.69;100.00;52412.69;5063488;28;20305;-80
2023/05/24 10:06:03;;;;;;;19.10;5.60;;;;;;;-145.69;98.60;52428.53;5074825;28;20199;-82
2023/05/24 10:08:31;;;;;;;14.52;4.93;;;;;;;-145.69;97.90;52428.53;5074669;28;20206;-81
2023/05/24 10:10:57;;;;;;;19.83;4.70;;;;;;;-145.69;100.00;52406.75;5062277;28;20287;-83
2023/05/24 10:13:24;;;;;;;18.23;5.00;;;;;;;-145.69;100.00;52426.56;5059104;28;20198;-80
2023/05/24 10:15:51;;;;;;;18.05;5.38;;;;;;;-145.69;100.00;52462.22;5073463;28;20206;-79
2023/05/24 10:18:19;;;;;;;18.13;5.28;;;;;;;-145.69;98.96;52408.75;5074513;28;20199;-80
2023/05/24 10:20:45;;;;;;;14.35;5.30;;;;;;;-145.69;98.03;52422.59;5064199;28;20206;-80
2023/05/24 10:23:19;;;;;;;14.40;5.38;;;;;;;-145.69;97.85;52410.72;5054375;28;20219;-81
2023/05/24 10:25:52;;;;;;;16.27;5.30;;;;;;;-145.69;98.67;52426.56;5053733;28;20208;-79
2023/05/24 10:28:21;;;;;;;16.05;5.80;;;;;;;-145.69;96.97;52452.31;5054071;28;20209;-80
2023/05/24 10:30:58;;;;;;;13.90;5.25;;;;;;;-145.69;97.68;52373.09;5058002;28;20196;-82
2023/05/24 10:33:26;;;;;;;14.52;5.30;;;;;;;-145.69;89.87;52406.75;5057544;28;20191;-80
2023/05/24 10:35:54;;;;;;;23.50;5.72;;;;;;;-145.69;86.79;52398.84;5074087;28;20681;-82
2023/05/24 10:38:22;;;;;;;12.68;5.13;;;;;;;-145.69;86.29;52406.75;5073964;28;20194;-80
2023/05/24 10:40:54;;;;;;;21.92;5.53;;;;;;;-145.69;84.96;52420.63;5070392;28;20225;-81
2023/05/24 10:43:21;;;;;;;18.98;4.60;;;;;;;-145.69;87.68;52384.97;5070523;28;20237;-80
2023/05/24 10:45:49;;;;;;;17.45;5.95;;;;;;;-145.69;88.97;52396.84;5053349;28;20206;-81
2023/05/24 10:48:37;;;;;;;16.63;5.57;;;;;;;-145.69;87.18;52353.28;5053415;28;20203;-82
2023/05/24 10:51:32;;;;;;;15.30;5.88;;;;;;;-145.69;84.78;52392.91;5063480;28;20194;-80
2023/05/24 10:54:15;;;;;;;17.55;5.55;;;;;;;-145.69;89.26;52442.41;5065848;28;20243;-81
2023/05/24 10:56:42;;;;;;;16.42;5.25;;;;;;;-145.69;89.05;52422.59;5054026;28;20230;-82
2023/05/24 10:59:09;;;;;;;18.67;5.60;;;;;;;-145.69;90.54;52416.66;5053560;28;20670;-81
2023/05/24 11:01:36;;;;;;;19.15;5.68;;;;;;;-145.69;89.72;52398.84;5065828;28;20195;-82
2023/05/24 11:04:12;;;;;;;11.88;5.32;;;;;;;-145.69;87.98;52396.84;5053996;28;20223;-85
2023/05/24 11:06:49;;;;;;;20.15;6.00;;;;;;;-145.69;85.88;52412.69;5053965;28;20672;-84
2023/05/24 11:09:18;;;;;;;13.68;4.93;;;;;;;-145.69;86.58;52408.75;5053211;28;20213;-81